Time;durP1;ratioP1;P1;durP2;ratioP2;P2;SDS_P1;SDS_P2;PMS_P1;PMS_P2;Temp;Humidity;BMP_temperature;BMP_pressure;BME280_temperature;BME280_humidity;BME280_pressure;Samples;Min_cycle;Max_cycle;Signal;HPM_P1;HPM_P2
2021/03/27 00:02:20;;;;;;;3.57;1.80;;;7.20;84.50;;;;;;4901843;29;20050;-71
2021/03/27 00:04:55;;;;;;;4.87;2.13;;;7.20;84.80;;;;;;4886679;29;20464;-71
2021/03/27 00:07:22;;;;;;;3.10;1.97;;;7.10;84.80;;;;;;4902501;29;20033;-71
2021/03/27 00:10:07;;;;;;;3.60;2.00;;;7.10;84.90;;;;;;4893521;29;20048;-71
2021/03/27 00:12:44;;;;;;;4.10;1.87;;;7.10;85.20;;;;;;4888962;29;20492;-70
2021/03/27 00:15:35;;;;;;;3.67;1.80;;;7.00;85.20;;;;;;4886207;29;20045;-71
2021/03/27 00:18:05;;;;;;;4.47;2.03;;;7.00;85.40;;;;;;4889627;29;20036;-71
2021/03/27 00:20:44;;;;;;;3.53;1.70;;;7.00;85.60;;;;;;4899161;29;20040;-71
2021/03/27 00:23:21;;;;;;;2.80;1.20;;;6.90;85.50;;;;;;4900838;29;20040;-71
2021/03/27 00:25:53;;;;;;;2.93;1.70;;;6.90;85.50;;;;;;4899431;29;20382;-71
2021/03/27 00:28:34;;;;;;;3.17;1.00;;;6.90;85.50;;;;;;4904750;29;20055;-71
2021/03/27 00:31:07;;;;;;;2.30;1.10;;;6.90;85.80;;;;;;4907730;29;20040;-71
2021/03/27 00:33:36;;;;;;;2.05;0.90;;;6.90;85.70;;;;;;4905999;29;20489;-71
2021/03/27 00:36:22;;;;;;;3.53;1.00;;;6.90;85.90;;;;;;4909089;29;20044;-71
2021/03/27 00:39:08;;;;;;;2.40;0.73;;;6.80;85.70;;;;;;4909673;29;20416;-71
2021/03/27 00:41:39;;;;;;;2.37;0.70;;;6.80;86.00;;;;;;4898753;29;20120;-75
2021/03/27 00:44:12;;;;;;;2.73;0.63;;;6.80;86.00;;;;;;4896472;29;20069;-74
2021/03/27 00:46:42;;;;;;;1.05;0.40;;;6.80;86.20;;;;;;4898566;29;20057;-73
2021/03/27 00:49:14;;;;;;;1.47;0.40;;;6.80;86.20;;;;;;4898404;29;20124;-73
2021/03/27 00:51:48;;;;;;;2.42;0.30;;;6.80;86.40;;;;;;4885820;29;20397;-77
2021/03/27 00:54:36;;;;;;;0.77;0.30;;;6.70;86.50;;;;;;4894571;29;20084;-74
2021/03/27 00:57:24;;;;;;;1.70;0.40;;;6.70;86.40;;;;;;4887113;29;20112;-74
2021/03/27 01:00:21;;;;;;;1.13;0.20;;;6.70;86.30;;;;;;4899739;29;20095;-74
2021/03/27 01:03:28;;;;;;;0.70;0.30;;;6.70;86.30;;;;;;4895624;29;20550;-73
2021/03/27 01:06:08;;;;;;;0.70;0.20;;;6.70;86.30;;;;;;4893713;29;20048;-73
2021/03/27 01:09:01;;;;;;;0.50;0.17;;;6.70;87.00;;;;;;4897062;29;20630;-74
2021/03/27 01:11:40;;;;;;;;;;;6.80;86.40;;;;;;4897488;29;20052;-73
2021/03/27 01:14:25;;;;;;;0.57;0.10;;;6.70;86.50;;;;;;4897168;29;19942;-73
2021/03/27 01:16:58;;;;;;;0.55;0.30;;;6.70;86.40;;;;;;4889000;29;20157;-73
2021/03/27 01:19:30;;;;;;;0.40;0.20;;;6.70;86.50;;;;;;4888353;29;20093;-73
2021/03/27 01:21:58;;;;;;;1.03;0.40;;;6.70;86.40;;;;;;4882172;29;20080;-70
2021/03/27 01:24:29;;;;;;;1.70;0.60;;;6.80;86.50;;;;;;4881282;29;20044;-70
2021/03/27 01:26:59;;;;;;;1.53;0.60;;;6.80;86.50;;;;;;4902255;29;20041;-70
2021/03/27 01:29:33;;;;;;;2.30;1.10;;;6.80;86.50;;;;;;4896992;29;20412;-70
2021/03/27 01:32:20;;;;;;;4.10;1.27;;;6.80;86.60;;;;;;4911128;29;20041;-70
2021/03/27 01:35:01;;;;;;;3.37;1.13;;;6.80;86.70;;;;;;4897528;29;20132;-71
2021/03/27 01:37:44;;;;;;;2.70;1.33;;;6.80;86.80;;;;;;4898110;29;20045;-72
2021/03/27 01:40:29;;;;;;;;;;;6.80;86.80;;;;;;4893293;29;20051;-73
2021/03/27 01:43:16;;;;;;;3.17;1.63;;;6.80;86.80;;;;;;4905207;29;19999;-73
2021/03/27 01:46:19;;;;;;;4.87;1.70;;;6.80;86.80;;;;;;4890278;29;20051;-73
2021/03/27 01:49:05;;;;;;;6.17;2.47;;;6.80;86.80;;;;;;4889501;29;20053;-73
2021/03/27 01:51:41;;;;;;;3.43;1.93;;;6.80;86.80;;;;;;4891575;29;20484;-73
2021/03/27 01:54:12;;;;;;;3.93;2.30;;;6.80;86.90;;;;;;4891358;29;20417;-73
2021/03/27 01:56:56;;;;;;;7.07;3.17;;;6.80;87.10;;;;;;4905547;29;20533;-73
2021/03/27 01:59:30;;;;;;;6.03;3.23;;;6.80;87.30;;;;;;4899233;29;20060;-73
2021/03/27 02:02:10;;;;;;;7.37;3.30;;;6.80;87.20;;;;;;4907343;29;20100;-73
2021/03/27 02:04:43;;;;;;;7.10;3.33;;;6.80;87.30;;;;;;4889001;29;20047;-73
2021/03/27 02:07:37;;;;;;;6.55;4.40;;;6.80;87.40;;;;;;4891787;29;20040;-73
2021/03/27 02:10:13;;;;;;;6.80;4.73;;;6.80;87.50;;;;;;4890733;29;20052;-73
2021/03/27 02:12:57;;;;;;;8.93;5.23;;;6.80;87.70;;;;;;4894163;29;20066;-73
2021/03/27 02:15:59;;;;;;;8.23;5.53;;;6.80;87.80;;;;;;4888883;29;20418;-70
2021/03/27 02:18:31;;;;;;;8.53;5.77;;;6.80;87.90;;;;;;4874082;29;20535;-71
2021/03/27 02:21:32;;;;;;;10.55;5.78;;;6.70;88.10;;;;;;4894890;29;20044;-71
2021/03/27 02:24:45;;;;;;;9.87;6.23;;;6.70;88.10;;;;;;4902137;29;20044;-71
2021/03/27 02:27:25;;;;;;;8.23;5.47;;;6.70;88.40;;;;;;4835350;29;20447;-71
2021/03/27 02:30:06;;;;;;;8.87;5.27;;;6.70;88.40;;;;;;4835493;29;20207;-71
2021/03/27 02:32:57;;;;;;;10.53;5.77;;;6.70;88.40;;;;;;4880382;29;20051;-71
2021/03/27 02:35:51;;;;;;;8.80;5.90;;;6.70;88.50;;;;;;4893199;29;20143;-71
2021/03/27 02:38:45;;;;;;;11.70;6.10;;;6.60;89.20;;;;;;4901392;29;20123;-71
2021/03/27 02:41:18;;;;;;;9.77;4.87;;;6.50;89.50;;;;;;4900869;29;20496;-71
2021/03/27 02:43:55;;;;;;;6.88;4.75;;;6.40;89.80;;;;;;4895274;29;20119;-71
2021/03/27 02:46:47;;;;;;;11.07;5.13;;;6.40;90.00;;;;;;4891353;29;20465;-71
2021/03/27 02:49:48;;;;;;;8.30;5.30;;;6.30;90.20;;;;;;4894578;29;20037;-71
2021/03/27 02:52:36;;;;;;;10.17;5.90;;;6.30;90.20;;;;;;4900854;29;20108;-70
2021/03/27 02:55:12;;;;;;;10.83;5.80;;;6.30;90.40;;;;;;4914594;29;20048;-70
2021/03/27 02:57:42;;;;;;;8.07;4.97;;;6.30;90.50;;;;;;4905812;29;20048;-70
2021/03/27 03:00:30;;;;;;;9.17;5.00;;;6.20;90.50;;;;;;4904751;29;20378;-70
2021/03/27 03:03:12;;;;;;;9.20;5.20;;;6.30;90.80;;;;;;4899589;29;20453;-70
2021/03/27 03:05:54;;;;;;;8.88;5.18;;;6.30;90.50;;;;;;4893774;29;20509;-70
2021/03/27 03:08:31;;;;;;;8.70;5.17;;;6.30;90.50;;;;;;4911522;29;20481;-70
2021/03/27 03:11:12;;;;;;;11.73;5.43;;;6.30;90.60;;;;;;4901066;29;20488;-71
2021/03/27 03:14:02;;;;;;;11.10;5.60;;;6.30;90.60;;;;;;4885949;29;20056;-70
2021/03/27 03:17:01;;;;;;;9.57;5.43;;;6.30;90.70;;;;;;4901854;29;20489;-70
2021/03/27 03:19:56;;;;;;;8.37;4.60;;;6.20;90.70;;;;;;4887794;29;20057;-70
2021/03/27 03:22:36;;;;;;;8.07;4.45;;;6.20;90.70;;;;;;4894984;29;20112;-70
2021/03/27 03:25:12;;;;;;;9.53;4.27;;;6.20;90.80;;;;;;4896549;29;20033;-70
2021/03/27 03:28:10;;;;;;;8.00;4.40;;;6.10;90.80;;;;;;4894678;29;20072;-70
2021/03/27 03:31:15;;;;;;;8.70;4.43;;;6.10;90.90;;;;;;4903055;29;20049;-70
2021/03/27 03:34:18;;;;;;;7.07;4.13;;;6.10;90.90;;;;;;4828739;29;20046;-70
2021/03/27 03:37:05;;;;;;;9.38;4.68;;;6.20;90.90;;;;;;4884941;29;20494;-70
2021/03/27 03:39:43;;;;;;;8.87;4.07;;;6.30;90.80;;;;;;4877545;29;20493;-70
2021/03/27 03:42:43;;;;;;;5.10;3.17;;;6.30;90.80;;;;;;4880149;29;20045;-70
2021/03/27 03:45:25;;;;;;;7.77;3.90;;;6.30;90.80;;;;;;4878108;29;20049;-70
2021/03/27 03:48:17;;;;;;;8.40;4.45;;;6.30;90.80;;;;;;4885492;29;20057;-70
2021/03/27 03:51:01;;;;;;;10.27;4.57;;;6.40;90.80;;;;;;4899256;29;20041;-70
2021/03/27 03:53:49;;;;;;;13.63;4.70;;;6.40;90.80;;;;;;4895808;29;20052;-70
2021/03/27 03:56:34;;;;;;;7.17;3.80;;;6.50;90.80;;;;;;4886368;29;20107;-70
2021/03/27 03:59:22;;;;;;;11.87;4.50;;;6.40;90.80;;;;;;4892762;29;20041;-70
2021/03/27 04:02:05;;;;;;;9.40;4.73;;;6.40;90.80;;;;;;4891502;29;20100;-71
2021/03/27 04:04:53;;;;;;;12.07;4.97;;;6.40;90.80;;;;;;4867464;29;20124;-71
2021/03/27 04:07:29;;;;;;;10.17;4.37;;;6.40;90.80;;;;;;4892229;29;20045;-70
2021/03/27 04:10:02;;;;;;;9.53;5.27;;;6.40;90.80;;;;;;4893483;29;20056;-70
2021/03/27 04:12:44;;;;;;;9.40;4.97;;;6.50;90.90;;;;;;4892614;29;20045;-70
2021/03/27 04:15:27;;;;;;;9.93;5.60;;;6.50;90.90;;;;;;4895318;29;20052;-70
2021/03/27 04:18:09;;;;;;;8.03;4.73;;;6.50;90.80;;;;;;4893441;29;20045;-70
2021/03/27 04:21:00;;;;;;;11.60;4.83;;;6.50;90.80;;;;;;4893611;29;20052;-70
2021/03/27 04:23:38;;;;;;;9.10;4.23;;;6.50;90.80;;;;;;4886817;29;20840;-70
2021/03/27 04:26:22;;;;;;;12.27;4.80;;;6.50;90.90;;;;;;4885021;29;20092;-70
2021/03/27 04:29:26;;;;;;;9.77;4.80;;;6.50;90.80;;;;;;4909951;29;20048;-70
2021/03/27 04:32:13;;;;;;;10.02;4.45;;;6.60;90.80;;;;;;4904658;29;20048;-70
2021/03/27 04:34:56;;;;;;;9.43;5.10;;;6.50;90.80;;;;;;4903061;29;20048;-70
2021/03/27 04:37:27;;;;;;;12.38;5.63;;;6.50;90.80;;;;;;4903136;29;20048;-70
2021/03/27 04:40:13;;;;;;;10.47;5.23;;;6.40;90.80;;;;;;4899959;29;20044;-70
2021/03/27 04:43:10;;;;;;;8.90;4.37;;;6.40;90.90;;;;;;4909424;29;20048;-70
2021/03/27 04:45:58;;;;;;;10.20;5.43;;;6.40;90.90;;;;;;4894917;29;20112;-72
2021/03/27 04:48:37;;;;;;;11.80;5.17;;;6.40;91.00;;;;;;4898986;29;20048;-73
2021/03/27 04:51:07;;;;;;;11.07;4.87;;;6.30;90.90;;;;;;4905832;29;20076;-73
2021/03/27 04:53:47;;;;;;;9.20;4.60;;;6.30;91.00;;;;;;4901681;29;20088;-73
2021/03/27 04:56:20;;;;;;;7.93;4.53;;;6.40;91.00;;;;;;4905450;29;20096;-73
2021/03/27 04:59:24;;;;;;;13.40;4.72;;;6.40;91.00;;;;;;4902605;29;20036;-73
2021/03/27 05:02:10;;;;;;;11.57;4.60;;;6.40;90.90;;;;;;4899590;29;20473;-73
2021/03/27 05:04:56;;;;;;;9.00;4.40;;;6.40;90.90;;;;;;4897333;29;20123;-73
2021/03/27 05:07:41;;;;;;;9.50;3.87;;;6.40;90.90;;;;;;4889428;29;20105;-73
2021/03/27 05:10:29;;;;;;;10.43;4.40;;;6.40;90.90;;;;;;4896639;29;20077;-73
2021/03/27 05:13:06;;;;;;;6.57;2.93;;;6.50;90.90;;;;;;4912713;29;20045;-73
2021/03/27 05:15:51;;;;;;;6.97;3.10;;;6.50;90.90;;;;;;4903014;29;20104;-73
2021/03/27 05:18:53;;;;;;;6.70;2.97;;;6.50;90.90;;;;;;4899098;29;20052;-70
2021/03/27 05:21:35;;;;;;;8.83;2.87;;;6.50;90.80;;;;;;4896110;29;20042;-70
2021/03/27 05:24:01;;;;;;;8.10;3.47;;;6.60;90.80;;;;;;4901016;29;20055;-69
2021/03/27 05:26:36;;;;;;;7.77;3.37;;;6.60;90.80;;;;;;4900839;29;20048;-70
2021/03/27 05:29:31;;;;;;;7.70;2.53;;;6.60;90.80;;;;;;4906956;29;20044;-71
2021/03/27 05:32:28;;;;;;;8.33;2.50;;;6.60;90.70;;;;;;4897458;29;20056;-71
2021/03/27 05:35:01;;;;;;;7.70;2.37;;;6.60;90.80;;;;;;4886797;29;20437;-71
2021/03/27 05:37:28;;;;;;;;;;;6.40;90.80;;;;;;4893600;29;20519;-71
2021/03/27 05:40:17;;;;;;;5.10;1.80;;;6.30;91.10;;;;;;4902680;29;21638;-70
2021/03/27 05:43:21;;;;;;;7.90;2.10;;;6.20;91.10;;;;;;4894917;29;20060;-70
2021/03/27 05:46:45;;;;;;;6.07;1.37;;;6.10;91.20;;;;;;4863264;29;20060;-75
2021/03/27 05:49:23;;;;;;;6.97;1.43;;;6.00;91.20;;;;;;4797454;29;20050;-75
2021/03/27 05:52:07;;;;;;;3.07;1.17;;;5.90;91.30;;;;;;4809554;29;20510;-75
2021/03/27 05:54:49;;;;;;;6.73;1.57;;;5.80;91.40;;;;;;4879801;29;20053;-75
2021/03/27 05:57:45;;;;;;;8.97;1.67;;;5.80;91.40;;;;;;4900842;29;20772;-75
2021/03/27 06:00:36;;;;;;;3.90;1.37;;;5.80;91.70;;;;;;4897006;29;20104;-75
2021/03/27 06:03:21;;;;;;;4.67;1.30;;;5.80;91.50;;;;;;4898896;29;20042;-75
2021/03/27 06:06:20;;;;;;;4.30;1.07;;;5.80;91.50;;;;;;4903525;29;20127;-76
2021/03/27 06:09:10;;;;;;;3.83;1.10;;;5.90;91.50;;;;;;4909846;29;20632;-75
2021/03/27 06:11:42;;;;;;;5.17;1.30;;;5.90;91.50;;;;;;4901845;29;20120;-75
2021/03/27 06:14:28;;;;;;;5.13;1.00;;;5.90;91.50;;;;;;4904942;29;20050;-75
2021/03/27 06:17:14;;;;;;;5.03;1.10;;;6.00;91.40;;;;;;4877331;29;20041;-76
2021/03/27 06:19:52;;;;;;;4.90;1.00;;;6.00;91.50;;;;;;4907208;29;20947;-76
2021/03/27 06:22:56;;;;;;;3.53;1.37;;;6.00;91.40;;;;;;4895445;29;20048;-77
2021/03/27 06:25:44;;;;;;;6.83;1.10;;;6.10;91.40;;;;;;4889673;29;20048;-70
2021/03/27 06:29:01;;;;;;;7.73;1.50;;;6.00;91.20;;;;;;4904652;29;20040;-70
2021/03/27 06:31:33;;;;;;;5.13;1.30;;;5.90;91.10;;;;;;4847618;29;20053;-70
2021/03/27 06:34:34;;;;;;;5.45;1.25;;;5.80;91.10;;;;;;4894773;29;20061;-70
2021/03/27 06:37:16;;;;;;;2.73;0.70;;;5.80;91.10;;;;;;4896085;29;20045;-70
2021/03/27 06:40:20;;;;;;;2.60;0.60;;;5.70;91.10;;;;;;4897052;29;20044;-70
2021/03/27 06:43:13;;;;;;;7.17;1.10;;;5.60;91.00;;;;;;4906747;29;20404;-70
2021/03/27 06:45:43;;;;;;;2.45;0.68;;;5.50;91.10;;;;;;4889517;29;20382;-71
2021/03/27 06:48:38;;;;;;;3.77;0.90;;;5.40;91.10;;;;;;4894650;29;20053;-70
2021/03/27 06:51:23;;;;;;;5.03;1.23;;;5.40;91.10;;;;;;4885603;29;20048;-76
2021/03/27 06:54:22;;;;;;;3.33;0.70;;;5.30;91.20;;;;;;4891562;29;20077;-76
2021/03/27 06:56:51;;;;;;;3.80;0.67;;;5.30;91.20;;;;;;4892132;29;20041;-76
2021/03/27 06:59:33;;;;;;;2.57;0.67;;;5.30;91.30;;;;;;4887799;29;20408;-76
2021/03/27 07:02:11;;;;;;;2.40;0.80;;;5.30;91.20;;;;;;4897317;29;20044;-76
2021/03/27 07:04:44;;;;;;;2.03;0.60;;;5.30;91.20;;;;;;4897038;29;20113;-76
2021/03/27 07:07:31;;;;;;;3.92;0.77;;;5.30;91.20;;;;;;4892043;29;20041;-75
2021/03/27 07:10:30;;;;;;;4.10;0.60;;;5.30;91.20;;;;;;4891750;29;20041;-76
2021/03/27 07:13:21;;;;;;;2.30;0.60;;;5.30;91.50;;;;;;4888506;29;20040;-76
2021/03/27 07:16:19;;;;;;;4.13;0.73;;;5.20;91.20;;;;;;4893767;29;20049;-76
2021/03/27 07:19:17;;;;;;;3.43;0.70;;;5.20;91.30;;;;;;4908018;29;20044;-76
2021/03/27 07:21:46;;;;;;;4.40;0.97;;;5.30;91.30;;;;;;4887462;29;20067;-76
2021/03/27 07:24:51;;;;;;;3.03;0.67;;;5.40;91.30;;;;;;4898189;29;20052;-76
2021/03/27 07:27:45;;;;;;;1.27;0.50;;;5.50;91.20;;;;;;4901909;29;20099;-76
2021/03/27 07:30:30;;;;;;;4.30;0.80;;;5.70;91.20;;;;;;4897975;29;20049;-76
2021/03/27 07:32:57;;;;;;;2.93;0.80;;;5.80;91.10;;;;;;4898874;29;20044;-77
2021/03/27 07:35:58;;;;;;;3.27;0.70;;;6.00;90.90;;;;;;4913853;29;20056;-78
2021/03/27 07:38:34;;;;;;;5.07;0.90;;;6.20;90.80;;;;;;4892506;29;20092;-77
2021/03/27 07:41:22;;;;;;;3.33;0.70;;;6.40;90.70;;;;;;4897282;29;20060;-76
2021/03/27 07:44:00;;;;;;;3.27;1.33;;;6.60;90.40;;;;;;4896671;29;20052;-76
2021/03/27 07:46:30;;;;;;;4.80;1.17;;;6.60;90.30;;;;;;4895242;29;20132;-76
2021/03/27 07:49:26;;;;;;;7.57;1.80;;;6.70;90.30;;;;;;4900608;29;20050;-76
2021/03/27 07:51:59;;;;;;;3.70;0.80;;;6.80;90.20;;;;;;4899596;29;20060;-76
2021/03/27 07:54:44;;;;;;;2.95;0.57;;;6.70;90.20;;;;;;4900073;29;20400;-76
2021/03/27 07:57:37;;;;;;;2.20;0.67;;;6.70;90.20;;;;;;4896478;29;20428;-76
2021/03/27 08:00:28;;;;;;;7.15;1.05;;;6.80;90.30;;;;;;4910544;29;20040;-76
2021/03/27 08:03:07;;;;;;;5.93;0.80;;;6.90;90.30;;;;;;4897529;29;20108;-75
2021/03/27 08:05:56;;;;;;;9.73;1.00;;;7.00;90.10;;;;;;4901769;29;20526;-70
2021/03/27 08:08:26;;;;;;;8.80;1.27;;;7.10;90.00;;;;;;4905866;29;20100;-71
2021/03/27 08:11:02;;;;;;;7.90;1.23;;;7.10;89.80;;;;;;4884706;29;20041;-70
2021/03/27 08:13:43;;;;;;;5.20;0.80;;;7.10;89.30;;;;;;4902765;29;20049;-71
2021/03/27 08:16:14;;;;;;;3.05;0.80;;;7.10;89.20;;;;;;4915447;29;20564;-70
2021/03/27 08:19:13;;;;;;;6.53;1.43;;;7.10;89.40;;;;;;4902026;29;20105;-70
2021/03/27 08:22:18;;;;;;;7.13;0.87;;;7.10;89.30;;;;;;4894504;29;20569;-70
2021/03/27 08:25:01;;;;;;;7.97;1.07;;;7.10;89.20;;;;;;4898480;29;20060;-70
2021/03/27 08:27:53;;;;;;;6.63;1.10;;;7.10;89.20;;;;;;4897784;29;20051;-70
2021/03/27 08:30:57;;;;;;;5.38;0.82;;;7.10;89.00;;;;;;4910213;29;20055;-71
2021/03/27 08:33:42;;;;;;;3.53;0.93;;;7.10;89.10;;;;;;4898568;29;20477;-70
2021/03/27 08:36:13;;;;;;;8.53;1.17;;;7.10;89.10;;;;;;4907753;29;20051;-70
2021/03/27 08:38:42;;;;;;;6.23;0.90;;;7.10;89.00;;;;;;4903280;29;20052;-70
2021/03/27 08:41:28;;;;;;;3.13;0.50;;;7.10;88.60;;;;;;4904035;29;20064;-70
2021/03/27 08:44:22;;;;;;;7.37;0.83;;;6.90;88.40;;;;;;4884652;29;20040;-72
2021/03/27 08:46:48;;;;;;;7.60;1.40;;;6.80;88.20;;;;;;4907127;29;20060;-71
2021/03/27 08:49:46;;;;;;;5.47;0.67;;;6.60;87.70;;;;;;4903146;29;20096;-71
2021/03/27 08:52:25;;;;;;;1.83;0.63;;;6.50;87.90;;;;;;4896637;29;20044;-71
2021/03/27 08:55:20;;;;;;;4.40;1.37;;;6.50;88.30;;;;;;4899462;29;20091;-71
2021/03/27 08:58:20;;;;;;;5.53;0.70;;;6.60;88.10;;;;;;4908506;29;20045;-71
2021/03/27 09:01:34;;;;;;;4.93;0.70;;;6.80;87.50;;;;;;4896687;29;20494;-71
2021/03/27 09:04:33;;;;;;;1.43;0.37;;;6.90;87.00;;;;;;4897545;29;20405;-71
2021/03/27 09:07:09;;;;;;;2.27;0.40;;;6.80;87.20;;;;;;4896799;29;20127;-71
2021/03/27 09:09:52;;;;;;;2.97;0.77;;;6.70;87.10;;;;;;4893511;29;20039;-71
2021/03/27 09:12:37;;;;;;;5.60;0.77;;;6.60;87.40;;;;;;4901530;29;20041;-71
2021/03/27 09:15:25;;;;;;;2.70;0.50;;;6.50;87.60;;;;;;4887330;29;20032;-70
2021/03/27 09:18:20;;;;;;;4.87;0.40;;;6.30;87.90;;;;;;4896113;29;20052;-69
2021/03/27 09:21:08;;;;;;;4.17;0.40;;;6.20;88.30;;;;;;4913858;29;20055;-70
2021/03/27 09:23:59;;;;;;;3.87;0.80;;;6.10;88.50;;;;;;4894577;29;20059;-70
2021/03/27 09:26:47;;;;;;;4.03;0.60;;;6.00;89.00;;;;;;4913825;29;20072;-70
2021/03/27 09:29:41;;;;;;;4.70;0.90;;;6.00;89.30;;;;;;4905267;29;20041;-69
2021/03/27 09:32:45;;;;;;;5.07;0.90;;;6.20;89.60;;;;;;4897367;29;20040;-69
2021/03/27 09:35:34;;;;;;;3.87;0.90;;;6.50;89.30;;;;;;4889856;29;20100;-69
2021/03/27 09:38:39;;;;;;;5.43;1.13;;;6.60;88.90;;;;;;4897686;29;20044;-69
2021/03/27 09:41:43;;;;;;;4.00;1.00;;;6.80;88.30;;;;;;4887191;29;20048;-70
2021/03/27 09:44:31;;;;;;;6.00;1.17;;;6.90;88.70;;;;;;4906130;29;20048;-71
2021/03/27 09:47:17;;;;;;;5.97;0.90;;;7.10;87.90;;;;;;4896043;29;20044;-70
2021/03/27 09:50:03;;;;;;;6.37;1.17;;;7.20;87.30;;;;;;4896994;29;20053;-70
2021/03/27 09:52:53;;;;;;;7.47;1.30;;;7.40;87.30;;;;;;4904280;29;20135;-69
2021/03/27 09:55:41;;;;;;;7.23;1.40;;;7.80;86.90;;;;;;4883462;29;20045;-70
2021/03/27 09:58:32;;;;;;;7.90;1.10;;;8.10;86.70;;;;;;4895264;29;20051;-71
2021/03/27 10:01:22;;;;;;;7.93;1.30;;;8.20;85.80;;;;;;4895465;29;20055;-70
2021/03/27 10:04:20;;;;;;;6.22;1.27;;;8.00;84.50;;;;;;4892291;29;20045;-70
2021/03/27 10:07:32;;;;;;;7.32;1.50;;;7.60;86.10;;;;;;4910417;29;20048;-70
2021/03/27 10:10:36;;;;;;;10.77;1.30;;;7.50;86.60;;;;;;4839141;29;20638;-69
2021/03/27 10:13:24;;;;;;;5.40;1.00;;;7.40;85.10;;;;;;4837177;29;20098;-69
2021/03/27 10:15:57;;;;;;;4.93;0.80;;;7.40;85.30;;;;;;4887198;29;20037;-69
2021/03/27 10:18:44;;;;;;;2.97;0.60;;;7.60;85.60;;;;;;4893046;29;20052;-70
2021/03/27 10:21:29;;;;;;;5.57;0.80;;;7.80;84.80;;;;;;4891393;29;20036;-69
2021/03/27 10:24:06;;;;;;;6.47;1.23;;;8.20;83.60;;;;;;4894514;29;20162;-70
2021/03/27 10:27:26;;;;;;;5.77;1.27;;;8.20;81.10;;;;;;4898463;29;20051;-69
2021/03/27 10:30:04;;;;;;;3.05;0.70;;;8.20;79.40;;;;;;4822564;29;20143;-70
2021/03/27 10:32:31;;;;;;;6.80;1.58;;;8.20;77.80;;;;;;4895743;29;20056;-70
2021/03/27 10:35:22;;;;;;;6.95;0.85;;;8.10;77.60;;;;;;4894943;29;20061;-70
2021/03/27 10:38:22;;;;;;;4.37;0.80;;;8.00;76.70;;;;;;4899639;29;20072;-70
2021/03/27 10:40:53;;;;;;;5.97;0.70;;;8.00;75.60;;;;;;4897704;29;20496;-69
2021/03/27 10:43:46;;;;;;;5.60;1.13;;;8.00;75.20;;;;;;4907933;29;20049;-69
2021/03/27 10:46:43;;;;;;;10.13;1.60;;;8.00;74.80;;;;;;4884881;29;20470;-73
2021/03/27 10:49:10;;;;;;;2.28;0.50;;;8.00;73.10;;;;;;4894132;29;20481;-73
2021/03/27 10:51:58;;;;;;;4.28;0.60;;;8.10;72.40;;;;;;4890510;29;20053;-73
2021/03/27 10:54:34;;;;;;;6.95;0.88;;;8.10;73.00;;;;;;4896149;29;20409;-73
2021/03/27 10:57:20;;;;;;;4.43;0.55;;;8.30;72.60;;;;;;4894796;29;20377;-74
2021/03/27 11:00:14;;;;;;;4.57;0.88;;;8.50;72.60;;;;;;4902934;29;20425;-74
2021/03/27 11:02:58;;;;;;;3.20;0.43;;;8.80;72.20;;;;;;4887062;29;20049;-70
2021/03/27 11:05:58;;;;;;;4.38;0.43;;;8.90;72.00;;;;;;4897819;29;20489;-73
2021/03/27 11:08:49;;;;;;;3.73;0.50;;;9.20;72.50;;;;;;4896806;29;20171;-73
2021/03/27 11:11:34;;;;;;;4.78;0.52;;;9.30;71.30;;;;;;4894781;29;20366;-70
2021/03/27 11:14:31;;;;;;;6.28;0.75;;;9.30;70.50;;;;;;4913018;29;20053;-75
2021/03/27 11:17:13;;;;;;;5.55;0.57;;;9.30;69.50;;;;;;4895471;29;20051;-75
2021/03/27 11:20:04;;;;;;;2.58;0.50;;;9.20;69.60;;;;;;4891454;29;20058;-70
2021/03/27 11:22:48;;;;;;;4.97;0.50;;;9.20;67.40;;;;;;4894887;29;20048;-69
2021/03/27 11:25:37;;;;;;;3.67;0.55;;;9.30;68.60;;;;;;4887748;29;20070;-73
2021/03/27 11:28:30;;;;;;;6.57;0.80;;;9.30;69.30;;;;;;4892461;29;20429;-70
2021/03/27 11:31:25;;;;;;;5.45;1.08;;;9.50;68.80;;;;;;4893630;29;20081;-74
2021/03/27 11:34:10;;;;;;;6.28;0.60;;;9.50;66.90;;;;;;4892734;29;20059;-74
2021/03/27 11:36:50;;;;;;;2.88;0.50;;;9.60;66.00;;;;;;4895104;29;20055;-73
2021/03/27 11:39:23;;;;;;;2.35;0.82;;;9.80;66.10;;;;;;4880508;29;20544;-73
2021/03/27 11:42:19;;;;;;;7.38;0.80;;;9.80;66.10;;;;;;4894482;29;20048;-73
2021/03/27 11:45:09;;;;;;;4.00;0.70;;;9.70;65.90;;;;;;4860569;29;20528;-75
2021/03/27 11:47:59;;;;;;;4.90;0.88;;;9.40;65.80;;;;;;4907879;29;20053;-76
2021/03/27 11:50:32;;;;;;;5.00;0.70;;;9.10;66.40;;;;;;4897162;29;20047;-71
2021/03/27 11:53:20;;;;;;;4.57;0.68;;;8.80;66.10;;;;;;4893232;29;20045;-71
2021/03/27 11:56:29;;;;;;;4.25;1.08;;;8.60;68.20;;;;;;4892346;29;20057;-71
2021/03/27 12:02:19;;;;;;;;;;;8.00;71.20;;;;;;4916155;29;19931;-71
2021/03/27 12:05:03;;;;;;;2.67;0.50;;;7.70;72.80;;;;;;4893745;29;19946;-71
2021/03/27 12:07:36;;;;;;;5.20;0.70;;;7.60;74.70;;;;;;4906239;29;20089;-70
2021/03/27 12:10:14;;;;;;;6.93;0.90;;;7.60;74.70;;;;;;4890469;29;20052;-74
2021/03/27 12:12:55;;;;;;;2.97;0.67;;;7.50;75.30;;;;;;4899003;29;20135;-73
2021/03/27 12:15:28;;;;;;;8.10;0.80;;;7.70;75.70;;;;;;4893464;29;20055;-73
2021/03/27 12:18:08;;;;;;;6.95;1.00;;;7.80;75.50;;;;;;4882977;29;20446;-73
2021/03/27 12:20:40;;;;;;;4.28;0.68;;;7.90;74.90;;;;;;4898353;29;20054;-74
2021/03/27 12:23:37;;;;;;;3.28;0.75;;;8.00;75.80;;;;;;4900100;29;20070;-74
2021/03/27 12:26:28;;;;;;;5.50;1.47;;;7.90;75.40;;;;;;4902304;29;20039;-74
2021/03/27 12:29:14;;;;;;;6.07;0.83;;;7.90;75.20;;;;;;4904446;29;20052;-73
2021/03/27 12:31:53;;;;;;;5.07;1.20;;;7.60;75.90;;;;;;4898194;29;20767;-79
2021/03/27 12:34:34;;;;;;;5.97;0.67;;;6.90;76.40;;;;;;4897339;29;20485;-78
2021/03/27 12:37:47;;;;;;;9.00;1.10;;;6.40;78.10;;;;;;4897992;29;20527;-75
2021/03/27 12:40:32;;;;;;;8.50;1.00;;;6.20;80.40;;;;;;4839819;29;20436;-76
2021/03/27 12:43:15;;;;;;;3.80;0.80;;;6.30;82.30;;;;;;4839893;29;20522;-75
2021/03/27 12:45:58;;;;;;;5.63;0.98;;;6.40;82.40;;;;;;4872390;29;20049;-74
2021/03/27 12:48:41;;;;;;;2.80;0.57;;;6.50;82.60;;;;;;4897510;29;20053;-76
2021/03/27 12:51:33;;;;;;;5.93;0.87;;;6.70;82.50;;;;;;4914427;29;20052;-75
2021/03/27 12:54:06;;;;;;;5.57;0.90;;;6.90;82.70;;;;;;4906362;29;20044;-74
2021/03/27 12:57:16;;;;;;;4.47;0.83;;;7.00;82.70;;;;;;4895501;29;20052;-72
2021/03/27 13:00:20;;;;;;;5.00;0.70;;;7.10;82.90;;;;;;4896345;29;20851;-71
2021/03/27 13:03:06;;;;;;;9.67;2.00;;;7.20;82.80;;;;;;4901549;29;20048;-71
2021/03/27 13:05:37;;;;;;;6.63;1.37;;;7.20;81.70;;;;;;4890465;29;20079;-72
2021/03/27 13:08:48;;;;;;;11.20;1.57;;;7.10;81.40;;;;;;4890395;29;20598;-72
2021/03/27 13:11:27;;;;;;;9.37;1.53;;;7.10;80.40;;;;;;4869980;29;20143;-74
2021/03/27 13:14:11;;;;;;;7.60;1.07;;;7.10;80.70;;;;;;4878148;29;20049;-74
2021/03/27 13:16:48;;;;;;;5.20;0.93;;;7.10;80.90;;;;;;4890484;29;20047;-75
2021/03/27 13:19:43;;;;;;;5.17;1.03;;;7.20;80.70;;;;;;4895063;29;20048;-74
2021/03/27 13:22:15;;;;;;;6.90;0.77;;;7.40;80.90;;;;;;4898267;29;20040;-75
2021/03/27 13:25:19;;;;;;;5.40;1.08;;;7.60;81.00;;;;;;4898668;29;20055;-76
2021/03/27 13:27:58;;;;;;;7.73;0.80;;;7.80;80.70;;;;;;4894268;29;20425;-74
2021/03/27 13:30:28;;;;;;;9.18;1.10;;;7.90;79.50;;;;;;4904301;29;20045;-73
2021/03/27 13:33:06;;;;;;;;;;;8.10;79.40;;;;;;4878556;29;20674;-73
2021/03/27 13:36:08;;;;;;;8.67;0.83;;;8.20;79.60;;;;;;4886193;29;19975;-73
2021/03/27 13:38:59;;;;;;;4.73;0.90;;;8.40;79.20;;;;;;4892436;29;20044;-73
2021/03/27 13:41:35;;;;;;;6.93;1.07;;;8.70;79.40;;;;;;4892973;29;20052;-73
2021/03/27 13:44:31;;;;;;;5.13;0.70;;;8.90;78.60;;;;;;4889497;29;20045;-73
2021/03/27 13:47:04;;;;;;;6.07;0.85;;;9.10;78.80;;;;;;4890382;29;20045;-73
2021/03/27 13:49:43;;;;;;;;;;;9.30;77.40;;;;;;4900371;29;20064;-74
2021/03/27 13:52:24;;;;;;;6.10;0.70;;;9.40;77.30;;;;;;4896113;29;19927;-74
2021/03/27 13:55:33;;;;;;;6.65;1.30;;;9.50;75.20;;;;;;4899686;29;20040;-74
2021/03/27 13:58:11;;;;;;;5.97;0.82;;;9.40;75.20;;;;;;4839359;29;20054;-74
2021/03/27 14:01:11;;;;;;;8.63;1.10;;;9.40;74.80;;;;;;4910888;29;20047;-73
2021/03/27 14:03:59;;;;;;;5.72;0.80;;;9.30;74.50;;;;;;4881914;29;20056;-72
2021/03/27 14:06:45;;;;;;;5.30;0.70;;;9.30;73.40;;;;;;4888712;29;20059;-74
2021/03/27 14:09:29;;;;;;;6.50;1.42;;;9.20;73.60;;;;;;4893033;29;20102;-73
2021/03/27 14:12:15;;;;;;;5.07;1.05;;;9.30;73.90;;;;;;4895648;29;20040;-76
2021/03/27 14:15:04;;;;;;;3.67;0.77;;;9.20;72.20;;;;;;4895467;29;20500;-73
2021/03/27 14:18:06;;;;;;;10.38;1.00;;;9.20;73.30;;;;;;4889407;29;20072;-73
2021/03/27 14:20:43;;;;;;;5.53;1.00;;;9.20;72.50;;;;;;4888146;29;20045;-74
2021/03/27 14:23:32;;;;;;;9.13;0.93;;;9.20;72.50;;;;;;4887380;29;20041;-73
2021/03/27 14:26:12;;;;;;;5.82;1.10;;;9.30;72.30;;;;;;5101559;27;20354;-74
2021/03/27 14:28:38;;;;;;;5.25;1.00;;;9.40;72.10;;;;;;5103084;28;20036;-72
2021/03/27 14:31:05;;;;;;;4.35;1.08;;;9.50;71.80;;;;;;5098782;28;20036;-73
2021/03/27 14:34:01;;;;;;;4.07;1.00;;;9.60;71.90;;;;;;5097310;28;20032;-73
2021/03/27 14:36:58;;;;;;;6.18;1.48;;;9.60;72.50;;;;;;5104824;28;20047;-78
2021/03/27 14:39:35;;;;;;;3.53;1.05;;;9.70;72.90;;;;;;5097134;28;20089;-75